Time;durP1;ratioP1;P1;durP2;ratioP2;P2;SDS_P1;SDS_P2;PMS_P1;PMS_P2;Temp;Humidity;BMP_temperature;BMP_pressure;BME280_temperature;BME280_humidity;BME280_pressure;Samples;Min_cycle;Max_cycle;Signal;HPM_P1;HPM_P2
2021/03/04 00:00:01;;;;;;;8.00;6.07;;;8.40;84.30;;;;;;4954489;29;20443;-84
2021/03/04 00:02:28;;;;;;;9.23;6.37;;;8.40;85.10;;;;;;4954494;29;20803;-84
2021/03/04 00:04:54;;;;;;;8.20;6.60;;;8.30;84.50;;;;;;4954799;29;20496;-84
2021/03/04 00:07:20;;;;;;;9.63;5.90;;;8.30;84.70;;;;;;4954504;29;20861;-84
2021/03/04 00:09:46;;;;;;;9.83;6.60;;;8.20;83.60;;;;;;4955219;28;20802;-81
2021/03/04 00:12:13;;;;;;;7.13;6.40;;;8.20;82.50;;;;;;4957708;29;20994;-81
2021/03/04 00:14:40;;;;;;;9.47;6.67;;;8.20;84.90;;;;;;4958558;29;20477;-81
2021/03/04 00:17:06;;;;;;;9.00;5.83;;;8.20;84.30;;;;;;4957818;29;20861;-81
2021/03/04 00:19:32;;;;;;;7.03;5.53;;;8.20;85.40;;;;;;4958382;29;21062;-81
2021/03/04 00:21:58;;;;;;;9.73;6.10;;;8.20;84.40;;;;;;4958046;29;20861;-81
2021/03/04 00:24:24;;;;;;;9.63;6.30;;;8.20;82.80;;;;;;4958238;28;20457;-81
2021/03/04 00:26:51;;;;;;;8.43;5.90;;;8.20;84.40;;;;;;4957771;29;20454;-81
2021/03/04 00:29:17;;;;;;;9.60;6.57;;;8.20;84.30;;;;;;4958445;29;20458;-81
2021/03/04 00:31:44;;;;;;;13.00;7.40;;;8.20;84.00;;;;;;4957874;29;20842;-81
2021/03/04 00:34:10;;;;;;;12.20;7.70;;;8.10;84.20;;;;;;4958567;29;20894;-81
2021/03/04 00:36:37;;;;;;;8.90;6.77;;;8.10;83.20;;;;;;4958206;28;20485;-81
2021/03/04 00:39:06;;;;;;;11.97;7.37;;;8.10;83.70;;;;;;4957509;29;20474;-81
2021/03/04 00:41:32;;;;;;;10.43;7.37;;;8.10;83.70;;;;;;4957743;29;20450;-80
2021/03/04 00:43:59;;;;;;;11.50;7.20;;;8.10;83.70;;;;;;4958071;29;20453;-81
2021/03/04 00:46:25;;;;;;;13.00;6.60;;;8.10;82.70;;;;;;4957640;28;20478;-81
2021/03/04 00:48:52;;;;;;;9.73;5.60;;;8.10;82.20;;;;;;4957349;29;21040;-81
2021/03/04 00:51:18;;;;;;;7.43;6.00;;;8.10;83.50;;;;;;4957364;29;20978;-81
2021/03/04 00:53:44;;;;;;;8.50;5.80;;;8.00;82.10;;;;;;4958032;29;20458;-80
2021/03/04 00:56:12;;;;;;;9.80;6.03;;;8.10;80.50;;;;;;4956804;29;20474;-81
2021/03/04 00:58:38;;;;;;;11.87;6.57;;;8.10;79.40;;;;;;4957706;29;20454;-81
2021/03/04 01:01:04;;;;;;;10.40;6.97;;;8.10;79.60;;;;;;4957377;29;20454;-81
2021/03/04 01:03:31;;;;;;;11.03;6.40;;;8.20;80.10;;;;;;4957396;29;20960;-81
2021/03/04 01:05:58;;;;;;;8.13;6.30;;;8.20;80.80;;;;;;4957496;28;20466;-81
2021/03/04 01:08:25;;;;;;;12.63;6.97;;;8.10;80.50;;;;;;4957284;29;20454;-81
2021/03/04 01:10:51;;;;;;;10.53;7.00;;;8.20;80.70;;;;;;4957058;29;20481;-81
2021/03/04 01:13:17;;;;;;;12.50;8.30;;;8.20;81.20;;;;;;4957633;29;20457;-81
2021/03/04 01:15:44;;;;;;;12.77;8.00;;;8.20;82.50;;;;;;4957138;28;20474;-84
2021/03/04 01:18:11;;;;;;;14.63;9.00;;;8.10;82.80;;;;;;4957121;29;20462;-84
2021/03/04 01:20:37;;;;;;;12.07;9.03;;;8.10;84.00;;;;;;4956965;29;20461;-84
2021/03/04 01:23:04;;;;;;;16.57;10.60;;;8.10;84.30;;;;;;4956889;28;20802;-84
2021/03/04 01:25:30;;;;;;;15.80;10.60;;;8.10;85.70;;;;;;4957118;29;20474;-84
2021/03/04 01:27:56;;;;;;;14.93;9.67;;;8.10;86.50;;;;;;4957279;29;20454;-84
2021/03/04 01:30:29;;;;;;;16.40;10.00;;;8.10;86.30;;;;;;4956660;29;20466;-84
2021/03/04 01:32:55;;;;;;;17.13;10.47;;;8.10;85.40;;;;;;4957239;29;20783;-84
2021/03/04 01:35:22;;;;;;;16.97;9.40;;;8.10;85.90;;;;;;4956545;28;20459;-84
2021/03/04 01:37:48;;;;;;;11.97;8.53;;;8.10;86.20;;;;;;4956108;29;20478;-83
2021/03/04 01:40:20;;;;;;;11.73;9.30;;;8.00;86.10;;;;;;4956722;29;20455;-83
2021/03/04 01:42:47;;;;;;;15.00;9.40;;;8.00;86.60;;;;;;4956674;29;20942;-82
2021/03/04 01:45:13;;;;;;;17.00;8.73;;;8.00;86.80;;;;;;4956523;29;20488;-82
2021/03/04 01:47:43;;;;;;;16.03;9.60;;;7.90;86.50;;;;;;4956663;29;20450;-82
2021/03/04 01:50:11;;;;;;;15.90;10.00;;;7.90;86.90;;;;;;4956642;29;20446;-83
2021/03/04 01:52:38;;;;;;;14.80;9.40;;;7.90;87.00;;;;;;4956939;28;20482;-82
2021/03/04 01:55:06;;;;;;;13.90;9.27;;;7.90;86.80;;;;;;4956726;28;20471;-83
2021/03/04 01:57:33;;;;;;;13.53;9.43;;;7.90;87.40;;;;;;4956621;29;20464;-82
2021/03/04 02:00:00;;;;;;;12.80;9.50;;;7.90;88.00;;;;;;4956611;29;20458;-82
2021/03/04 02:03:15;;;;;;;14.50;9.10;;;7.90;88.60;;;;;;4956442;29;20447;-83
2021/03/04 02:05:43;;;;;;;16.13;9.10;;;7.90;89.40;;;;;;4954677;28;20477;-82
2021/03/04 02:08:17;;;;;;;11.70;8.87;;;7.80;89.70;;;;;;4956438;29;20474;-82
2021/03/04 02:10:48;;;;;;;12.40;8.10;;;7.80;90.00;;;;;;4955897;29;20438;-82
2021/03/04 02:13:28;;;;;;;12.40;8.13;;;7.80;90.10;;;;;;4956685;29;20797;-81
2021/03/04 02:16:02;;;;;;;12.57;8.47;;;7.80;90.20;;;;;;4955703;29;20470;-84
2021/03/04 02:18:33;;;;;;;13.57;8.90;;;7.80;90.10;;;;;;4937407;29;20440;-84
2021/03/04 02:21:12;;;;;;;16.93;8.57;;;7.80;90.50;;;;;;4953066;29;20443;-84
2021/03/04 02:24:22;;;;;;;11.53;7.23;;;7.80;90.80;;;;;;4956381;29;20505;-85
2021/03/04 02:27:02;;;;;;;14.30;9.43;;;7.80;90.60;;;;;;4956097;29;20453;-84
2021/03/04 02:29:32;;;;;;;10.43;7.80;;;7.70;90.50;;;;;;4955907;29;20447;-84
2021/03/04 02:32:01;;;;;;;11.30;7.00;;;7.80;91.30;;;;;;4956162;29;20497;-81
2021/03/04 02:34:29;;;;;;;12.87;7.50;;;7.70;91.30;;;;;;4955059;28;20473;-84
2021/03/04 02:36:56;;;;;;;12.63;7.70;;;7.80;90.90;;;;;;4956030;29;20454;-84
2021/03/04 02:39:24;;;;;;;12.90;7.80;;;7.70;90.90;;;;;;4955979;29;20451;-84
2021/03/04 02:41:52;;;;;;;13.70;6.80;;;7.80;91.00;;;;;;4955688;29;20518;-84
2021/03/04 02:44:22;;;;;;;12.40;5.50;;;7.80;90.80;;;;;;4955827;28;20447;-82
2021/03/04 02:46:49;;;;;;;9.90;6.20;;;7.90;87.70;;;;;;4955622;29;20472;-81
2021/03/04 02:49:16;;;;;;;9.37;5.77;;;7.90;86.60;;;;;;4955493;29;20458;-81
2021/03/04 02:51:43;;;;;;;11.00;5.53;;;7.90;87.70;;;;;;4955402;29;20993;-84
2021/03/04 02:54:11;;;;;;;12.80;6.80;;;8.00;87.10;;;;;;4955322;29;20450;-84
2021/03/04 02:56:40;;;;;;;9.80;6.17;;;8.00;87.00;;;;;;4955433;29;20474;-84
2021/03/04 02:59:08;;;;;;;7.73;5.87;;;8.00;86.20;;;;;;4955864;29;20455;-84
2021/03/04 03:01:36;;;;;;;11.07;6.50;;;8.00;85.10;;;;;;4955191;29;20814;-84
2021/03/04 03:04:04;;;;;;;7.20;6.50;;;8.00;83.50;;;;;;4955538;29;20506;-84
2021/03/04 03:06:33;;;;;;;9.20;6.90;;;8.10;84.00;;;;;;4955002;29;21015;-84
2021/03/04 03:09:00;;;;;;;10.87;6.87;;;8.10;85.50;;;;;;4955043;29;20934;-84
2021/03/04 03:11:27;;;;;;;13.47;7.17;;;8.10;87.60;;;;;;4955536;29;20540;-84
2021/03/04 03:13:54;;;;;;;11.93;7.43;;;8.10;88.00;;;;;;4955435;29;20446;-84
2021/03/04 03:16:21;;;;;;;10.20;7.30;;;8.00;86.30;;;;;;4955269;29;20533;-84
2021/03/04 03:18:48;;;;;;;9.27;7.07;;;8.00;85.40;;;;;;4954602;29;20517;-84
2021/03/04 03:21:15;;;;;;;10.60;7.00;;;8.00;84.80;;;;;;4955431;29;20450;-84
2021/03/04 03:23:41;;;;;;;9.20;6.70;;;7.90;83.90;;;;;;4955286;29;20461;-84
2021/03/04 03:26:07;;;;;;;8.43;5.77;;;7.90;83.20;;;;;;4955147;29;20474;-84
2021/03/04 03:28:34;;;;;;;7.97;6.00;;;7.90;81.80;;;;;;4955056;29;20443;-84
2021/03/04 03:31:00;;;;;;;12.13;6.60;;;7.90;82.10;;;;;;4955094;29;20447;-84
2021/03/04 03:33:28;;;;;;;11.50;8.10;;;7.90;82.90;;;;;;4954644;29;20946;-84
2021/03/04 03:35:56;;;;;;;13.50;8.67;;;7.90;82.50;;;;;;4955243;28;20466;-84
2021/03/04 03:38:23;;;;;;;13.37;7.50;;;7.90;82.80;;;;;;4954302;29;20829;-84
2021/03/04 03:40:52;;;;;;;13.20;8.20;;;7.90;83.50;;;;;;4955135;29;20457;-84
2021/03/04 03:43:21;;;;;;;11.07;8.30;;;7.90;84.10;;;;;;4955118;29;20493;-84
2021/03/04 03:45:49;;;;;;;10.70;7.80;;;7.90;84.80;;;;;;4957637;28;20474;-84
2021/03/04 03:48:17;;;;;;;11.50;7.33;;;7.90;84.00;;;;;;4958705;29;20430;-84
2021/03/04 03:50:44;;;;;;;11.30;7.87;;;7.90;85.00;;;;;;4958887;29;20827;-84
2021/03/04 03:53:13;;;;;;;15.10;7.60;;;7.90;85.40;;;;;;4958909;29;20457;-84
2021/03/04 03:55:40;;;;;;;13.70;8.70;;;7.90;85.20;;;;;;4958800;29;20466;-84
2021/03/04 03:58:07;;;;;;;11.97;7.13;;;7.80;85.50;;;;;;4959897;29;20454;-84
2021/03/04 04:00:34;;;;;;;11.40;7.67;;;7.80;85.80;;;;;;4958376;29;20446;-84
2021/03/04 04:03:01;;;;;;;13.23;8.10;;;7.80;85.60;;;;;;4959112;29;20810;-84
2021/03/04 04:05:28;;;;;;;11.43;7.67;;;7.80;85.40;;;;;;4958235;29;20473;-84
2021/03/04 04:07:55;;;;;;;10.57;8.30;;;7.70;85.00;;;;;;4958707;29;20475;-84
2021/03/04 04:10:24;;;;;;;10.10;8.03;;;7.70;85.00;;;;;;4958104;29;20442;-84
2021/03/04 04:12:51;;;;;;;9.10;6.70;;;7.70;85.00;;;;;;4958479;29;20545;-84
2021/03/04 04:15:18;;;;;;;9.20;6.70;;;7.70;84.60;;;;;;4958399;29;21009;-84
2021/03/04 04:17:44;;;;;;;8.50;6.30;;;7.80;84.50;;;;;;4958284;29;20447;-83
2021/03/04 04:20:11;;;;;;;12.47;6.60;;;7.80;83.00;;;;;;4957905;29;20446;-83
2021/03/04 04:22:37;;;;;;;9.23;6.37;;;7.80;82.60;;;;;;4958899;29;20442;-83
2021/03/04 04:25:05;;;;;;;12.57;6.73;;;7.80;81.80;;;;;;4958531;29;20470;-83
2021/03/04 04:27:32;;;;;;;13.07;6.03;;;7.80;82.70;;;;;;4958592;29;20454;-83
2021/03/04 04:29:58;;;;;;;10.20;5.90;;;7.80;83.20;;;;;;4957590;29;20446;-83
2021/03/04 04:32:25;;;;;;;10.70;6.37;;;7.80;82.40;;;;;;4957903;29;20482;-83
2021/03/04 04:34:51;;;;;;;9.93;6.20;;;7.80;82.10;;;;;;4957990;28;20869;-83
2021/03/04 04:37:17;;;;;;;14.00;6.03;;;7.70;82.80;;;;;;4957862;29;20958;-83
2021/03/04 04:39:43;;;;;;;12.03;6.73;;;7.80;81.90;;;;;;4949547;29;20442;-83
2021/03/04 04:42:10;;;;;;;7.57;5.47;;;7.80;81.10;;;;;;4957949;29;20450;-83
2021/03/04 04:44:37;;;;;;;7.30;5.80;;;7.80;80.10;;;;;;4958076;28;20458;-83
2021/03/04 04:47:04;;;;;;;8.37;5.20;;;7.80;80.40;;;;;;4957979;29;20469;-83
2021/03/04 04:49:30;;;;;;;6.03;5.33;;;7.80;80.00;;;;;;4957099;29;20462;-83
2021/03/04 04:51:56;;;;;;;7.83;4.87;;;7.80;80.10;;;;;;4957650;29;20488;-83
2021/03/04 04:54:22;;;;;;;9.80;5.93;;;7.80;78.80;;;;;;4957971;28;20559;-83
2021/03/04 04:56:48;;;;;;;13.27;6.00;;;7.80;79.30;;;;;;4956412;28;20502;-83
2021/03/04 04:59:15;;;;;;;7.70;5.43;;;7.80;80.00;;;;;;4958003;29;20458;-83
2021/03/04 05:01:42;;;;;;;8.77;5.30;;;7.80;79.50;;;;;;4957774;29;20450;-83
2021/03/04 05:04:08;;;;;;;7.83;5.57;;;7.80;80.10;;;;;;4957502;29;20469;-83
2021/03/04 05:06:35;;;;;;;11.73;5.50;;;7.80;79.80;;;;;;4957931;28;20504;-83
2021/03/04 05:09:01;;;;;;;8.97;5.50;;;7.70;79.80;;;;;;4957526;29;20450;-83
2021/03/04 05:11:27;;;;;;;8.70;6.17;;;7.70;79.80;;;;;;4956891;29;20482;-83
2021/03/04 05:13:53;;;;;;;9.53;5.60;;;7.70;80.00;;;;;;4957293;29;20462;-83
2021/03/04 05:16:19;;;;;;;7.30;5.90;;;7.70;80.30;;;;;;4957115;28;20545;-83
2021/03/04 05:18:47;;;;;;;11.73;6.17;;;7.70;80.10;;;;;;4957634;29;20454;-83
2021/03/04 05:21:13;;;;;;;9.90;6.30;;;7.70;80.20;;;;;;4957245;29;20454;-83
2021/03/04 05:23:39;;;;;;;8.90;7.27;;;7.60;80.60;;;;;;4957439;29;20458;-83
2021/03/04 05:26:05;;;;;;;9.73;6.50;;;7.60;81.70;;;;;;4956583;28;20470;-83
2021/03/04 05:28:31;;;;;;;14.63;7.50;;;7.60;81.70;;;;;;4956693;29;20454;-83
2021/03/04 05:30:58;;;;;;;10.37;6.27;;;7.60;81.70;;;;;;4957646;29;20454;-83
2021/03/04 05:33:24;;;;;;;9.37;6.30;;;7.60;82.90;;;;;;4958269;29;20481;-83
2021/03/04 05:35:51;;;;;;;9.27;6.83;;;7.60;81.70;;;;;;4956604;29;20466;-83
2021/03/04 05:38:17;;;;;;;8.50;6.20;;;7.60;82.10;;;;;;4956730;29;20859;-83
2021/03/04 05:40:44;;;;;;;9.10;6.60;;;7.50;82.70;;;;;;4957066;29;20453;-83
2021/03/04 05:43:10;;;;;;;11.10;7.30;;;7.50;83.10;;;;;;4956915;29;20450;-83
2021/03/04 05:45:40;;;;;;;10.53;6.23;;;7.40;83.40;;;;;;4956812;29;20481;-83
2021/03/04 05:48:09;;;;;;;14.37;7.03;;;7.40;83.70;;;;;;4956487;29;20514;-83
2021/03/04 05:50:37;;;;;;;10.60;7.50;;;7.30;84.60;;;;;;4956989;29;20446;-83
2021/03/04 05:53:10;;;;;;;11.57;7.20;;;7.30;84.00;;;;;;4956503;29;20993;-83
2021/03/04 05:55:36;;;;;;;8.30;6.33;;;7.20;83.80;;;;;;4956945;28;20485;-83
2021/03/04 05:58:05;;;;;;;9.33;6.63;;;7.20;83.90;;;;;;4956089;29;20447;-83
2021/03/04 06:00:32;;;;;;;11.80;6.70;;;7.20;84.50;;;;;;4956230;29;20501;-83
2021/03/04 06:02:58;;;;;;;10.07;7.57;;;7.10;85.00;;;;;;4956185;29;20457;-83
2021/03/04 06:05:25;;;;;;;12.23;7.10;;;7.10;84.60;;;;;;4956616;29;20481;-83
2021/03/04 06:07:52;;;;;;;10.23;6.60;;;7.10;84.80;;;;;;4955940;28;20450;-83
2021/03/04 06:10:19;;;;;;;10.73;6.43;;;7.10;84.50;;;;;;4957246;29;21022;-84
2021/03/04 06:12:45;;;;;;;10.10;6.30;;;7.10;84.40;;;;;;4958512;29;20474;-84
2021/03/04 06:15:12;;;;;;;10.70;7.00;;;7.20;84.10;;;;;;4956405;29;20478;-83
2021/03/04 06:17:39;;;;;;;13.70;7.20;;;7.20;84.50;;;;;;4956949;29;20454;-83
2021/03/04 06:20:07;;;;;;;9.50;5.60;;;7.20;84.60;;;;;;4959596;29;20459;-83
2021/03/04 06:22:34;;;;;;;10.80;5.93;;;7.30;82.20;;;;;;4955962;29;20514;-83
2021/03/04 06:25:05;;;;;;;14.27;6.80;;;7.30;82.80;;;;;;4955793;29;20487;-83
2021/03/04 06:27:34;;;;;;;10.17;6.03;;;7.40;82.70;;;;;;4956450;29;20907;-83
2021/03/04 06:30:02;;;;;;;11.60;5.90;;;7.50;83.10;;;;;;4956129;29;20545;-83
2021/03/04 06:32:28;;;;;;;12.97;5.90;;;7.50;83.00;;;;;;4955922;29;20478;-83
2021/03/04 06:35:09;;;;;;;9.60;5.70;;;7.50;83.00;;;;;;4955589;29;20541;-83
2021/03/04 06:37:38;;;;;;;8.33;6.20;;;7.60;83.10;;;;;;4955987;29;20528;-83
2021/03/04 06:40:06;;;;;;;9.27;5.40;;;7.60;82.90;;;;;;4955822;29;20455;-83
2021/03/04 06:42:41;;;;;;;8.80;6.70;;;7.70;83.20;;;;;;4955888;29;20509;-83
2021/03/04 06:45:20;;;;;;;8.97;6.13;;;7.60;83.30;;;;;;4955892;28;20478;-83
2021/03/04 06:47:47;;;;;;;10.87;6.93;;;7.60;84.50;;;;;;4956046;28;20438;-83
2021/03/04 06:50:22;;;;;;;11.23;6.97;;;7.70;85.10;;;;;;4955056;29;20450;-83
2021/03/04 06:52:48;;;;;;;12.30;7.03;;;7.70;86.30;;;;;;4955424;29;20574;-83
2021/03/04 06:55:15;;;;;;;9.33;5.53;;;7.70;85.20;;;;;;4955563;28;20525;-83
2021/03/04 06:57:56;;;;;;;10.40;6.33;;;7.80;85.30;;;;;;4955805;29;20454;-83
2021/03/04 07:00:23;;;;;;;8.90;5.93;;;7.90;86.10;;;;;;4955334;29;20450;-83
2021/03/04 07:02:53;;;;;;;9.17;5.60;;;8.00;85.10;;;;;;4955009;29;20812;-83
2021/03/04 07:05:21;;;;;;;9.33;6.60;;;8.00;82.30;;;;;;4955516;28;20470;-80
2021/03/04 07:07:51;;;;;;;11.03;5.73;;;8.20;83.60;;;;;;4955161;29;20447;-82
2021/03/04 07:10:18;;;;;;;11.70;6.70;;;8.30;83.70;;;;;;4955116;29;20859;-82
2021/03/04 07:12:46;;;;;;;13.83;6.50;;;8.40;82.80;;;;;;4946718;29;20478;-85
2021/03/04 07:15:14;;;;;;;11.17;6.83;;;8.60;82.90;;;;;;4955233;29;20478;-85
2021/03/04 07:17:42;;;;;;;9.10;5.93;;;8.70;81.40;;;;;;4954844;29;20454;-81
2021/03/04 07:20:13;;;;;;;10.37;6.87;;;8.90;81.00;;;;;;4956381;28;20458;-81
2021/03/04 07:22:41;;;;;;;10.90;6.40;;;9.00;80.60;;;;;;4955274;29;20918;-80
2021/03/04 07:25:10;;;;;;;10.53;6.30;;;9.10;80.10;;;;;;4956049;28;20478;-80
2021/03/04 07:27:37;;;;;;;10.27;5.43;;;9.20;78.00;;;;;;4954631;29;20872;-80
2021/03/04 07:30:06;;;;;;;9.77;6.30;;;9.10;77.10;;;;;;4954592;29;20510;-80
2021/03/04 07:32:32;;;;;;;10.90;5.90;;;9.10;77.80;;;;;;4936772;29;20491;-85
2021/03/04 07:34:59;;;;;;;8.73;6.50;;;9.10;76.70;;;;;;4949401;29;21012;-85
2021/03/04 07:37:25;;;;;;;7.23;5.93;;;9.30;76.50;;;;;;4955373;29;21021;-85
2021/03/04 07:39:58;;;;;;;9.33;6.40;;;9.30;76.40;;;;;;4955011;29;20937;-84
2021/03/04 07:42:24;;;;;;;11.03;5.80;;;9.40;76.30;;;;;;4955656;29;20903;-84
2021/03/04 07:44:51;;;;;;;9.43;6.23;;;9.40;76.80;;;;;;4954432;29;20478;-86
2021/03/04 07:47:25;;;;;;;8.60;5.90;;;9.60;75.90;;;;;;4936283;29;21071;-85
2021/03/04 07:49:52;;;;;;;10.03;6.53;;;9.60;74.50;;;;;;4947488;29;20453;-85
2021/03/04 07:52:19;;;;;;;12.00;6.03;;;9.60;74.80;;;;;;4955116;29;20502;-86
2021/03/04 07:54:48;;;;;;;10.50;5.90;;;9.70;74.50;;;;;;4954422;29;20478;-86
2021/03/04 07:57:16;;;;;;;12.20;6.30;;;9.80;74.50;;;;;;4938941;29;21361;-83
2021/03/04 07:59:51;;;;;;;10.07;5.93;;;9.80;73.70;;;;;;4954933;29;20486;-86
2021/03/04 08:02:26;;;;;;;15.13;6.57;;;9.90;74.00;;;;;;4955872;29;20441;-85
2021/03/04 08:04:52;;;;;;;9.83;6.13;;;9.80;73.80;;;;;;4955079;29;20529;-85
2021/03/04 08:07:25;;;;;;;12.60;6.90;;;9.90;73.80;;;;;;4955236;29;20450;-82
2021/03/04 08:09:52;;;;;;;11.13;6.30;;;9.90;74.00;;;;;;4954758;29;20973;-81
2021/03/04 08:12:19;;;;;;;9.57;6.20;;;10.20;71.80;;;;;;4954832;29;20533;-85
2021/03/04 08:14:55;;;;;;;7.80;5.43;;;10.30;71.90;;;;;;4955117;29;20486;-83
2021/03/04 08:17:22;;;;;;;9.77;5.83;;;10.50;72.10;;;;;;4954455;29;20446;-83
2021/03/04 08:19:49;;;;;;;10.13;6.40;;;10.60;70.20;;;;;;4955127;29;20449;-85
2021/03/04 08:22:19;;;;;;;9.73;6.07;;;10.70;71.70;;;;;;4954631;29;20443;-85
2021/03/04 08:24:46;;;;;;;9.33;5.67;;;10.80;70.50;;;;;;4955061;28;20510;-81
2021/03/04 08:27:12;;;;;;;10.87;6.00;;;10.90;69.30;;;;;;4954833;29;20454;-82
2021/03/04 08:29:46;;;;;;;9.87;6.03;;;10.90;68.40;;;;;;4954557;29;20443;-81
2021/03/04 08:32:13;;;;;;;11.60;5.93;;;11.10;68.70;;;;;;4957120;28;20469;-85
2021/03/04 08:34:41;;;;;;;9.97;6.40;;;11.20;68.20;;;;;;4958217;28;20481;-86
2021/03/04 08:37:21;;;;;;;10.83;6.30;;;11.50;69.10;;;;;;4958598;29;20449;-81
2021/03/04 08:39:48;;;;;;;9.30;6.50;;;11.80;68.10;;;;;;4958128;29;20457;-83
2021/03/04 08:42:14;;;;;;;11.60;5.67;;;11.90;66.80;;;;;;4957908;29;20450;-84
2021/03/04 08:44:47;;;;;;;13.63;5.37;;;12.00;65.80;;;;;;4958288;29;20473;-81
2021/03/04 08:47:14;;;;;;;12.73;6.80;;;12.20;64.80;;;;;;4958207;29;20466;-81
2021/03/04 08:49:49;;;;;;;15.50;6.40;;;12.30;63.70;;;;;;4958486;29;20434;-85
2021/03/04 08:52:21;;;;;;;8.73;5.83;;;12.40;64.60;;;;;;4957625;29;20492;-86
2021/03/04 08:54:49;;;;;;;9.73;5.37;;;12.60;64.40;;;;;;4957933;28;20482;-85
2021/03/04 08:57:22;;;;;;;12.00;6.63;;;12.90;63.40;;;;;;4957541;28;20446;-82
2021/03/04 08:59:48;;;;;;;8.03;5.53;;;12.90;62.70;;;;;;4957719;29;20447;-81
2021/03/04 09:02:15;;;;;;;12.53;5.90;;;13.30;62.60;;;;;;4957988;29;20442;-81
2021/03/04 09:04:44;;;;;;;12.20;6.27;;;13.60;62.80;;;;;;4957686;28;20478;-81
2021/03/04 09:07:12;;;;;;;9.00;6.33;;;13.50;59.70;;;;;;4957843;29;20814;-81
2021/03/04 09:09:40;;;;;;;11.57;6.27;;;13.80;61.20;;;;;;4958293;29;20526;-82
2021/03/04 09:12:08;;;;;;;11.37;5.87;;;14.00;59.40;;;;;;4957266;29;20978;-86
2021/03/04 09:14:34;;;;;;;13.03;5.53;;;14.30;59.90;;;;;;4957500;28;20903;-85
2021/03/04 09:17:01;;;;;;;11.53;5.97;;;15.10;58.90;;;;;;4957632;29;20923;-84
2021/03/04 09:19:29;;;;;;;11.57;6.90;;;16.10;56.70;;;;;;4957710;29;20443;-83
2021/03/04 09:21:57;;;;;;;11.27;6.27;;;16.80;54.60;;;;;;4957656;29;20431;-81
2021/03/04 09:24:24;;;;;;;10.90;6.40;;;17.50;52.20;;;;;;4957217;28;20431;-81
2021/03/04 09:26:52;;;;;;;11.73;5.83;;;17.30;52.70;;;;;;4957454;29;20435;-81
2021/03/04 09:29:19;;;;;;;11.03;6.87;;;17.50;52.50;;;;;;4958067;29;20445;-81
2021/03/04 09:31:52;;;;;;;9.40;5.90;;;17.60;51.20;;;;;;4957380;29;20473;-81
2021/03/04 09:34:19;;;;;;;8.27;5.80;;;17.80;50.30;;;;;;4957425;28;20426;-82
2021/03/04 09:36:45;;;;;;;11.73;6.17;;;18.40;51.20;;;;;;4957309;29;20489;-82
2021/03/04 09:39:11;;;;;;;10.50;5.60;;;19.30;48.60;;;;;;4956853;29;20492;-81
2021/03/04 09:41:37;;;;;;;10.03;6.40;;;20.10;47.80;;;;;;4957105;29;20414;-82
2021/03/04 09:44:06;;;;;;;9.00;6.10;;;20.70;46.40;;;;;;4956430;28;20927;-82
2021/03/04 09:46:34;;;;;;;10.80;6.17;;;21.20;44.70;;;;;;4957100;28;20480;-86
2021/03/04 09:49:12;;;;;;;8.23;5.37;;;21.50;43.30;;;;;;4956891;29;20438;-82
2021/03/04 09:51:42;;;;;;;8.63;5.53;;;22.20;43.30;;;;;;4956971;29;20533;-87
2021/03/04 09:54:10;;;;;;;8.40;5.80;;;22.60;41.20;;;;;;4956629;29;20201;-83
2021/03/04 09:56:36;;;;;;;8.65;5.60;;;22.70;41.30;;;;;;4958315;29;20602;-83
2021/03/04 09:59:02;;;;;;;8.18;6.10;;;23.00;41.00;;;;;;4957003;29;20198;-84
2021/03/04 10:01:31;;;;;;;13.93;5.80;;;22.90;40.60;;;;;;4956428;29;20206;-84
2021/03/04 10:04:05;;;;;;;8.00;6.10;;;22.30;40.10;;;;;;4956986;29;20669;-84
2021/03/04 10:06:36;;;;;;;10.17;5.90;;;22.00;40.30;;;;;;4955756;28;20230;-84
2021/03/04 10:09:04;;;;;;;8.23;6.07;;;21.90;40.50;;;;;;4956198;29;20194;-84
2021/03/04 10:11:32;;;;;;;7.70;5.77;;;21.20;41.00;;;;;;4956317;29;20434;-84
2021/03/04 10:14:08;;;;;;;9.60;5.97;;;21.00;42.30;;;;;;4955397;29;20926;-84
2021/03/04 10:16:35;;;;;;;11.17;6.37;;;20.80;41.70;;;;;;4955215;29;21018;-84
2021/03/04 10:19:01;;;;;;;14.57;7.73;;;20.90;42.40;;;;;;4957470;29;20794;-84
2021/03/04 10:21:28;;;;;;;8.73;6.03;;;20.90;42.30;;;;;;4956019;29;20882;-84
2021/03/04 10:23:54;;;;;;;5.93;5.23;;;21.30;42.40;;;;;;4957408;29;20501;-84
2021/03/04 10:26:20;;;;;;;10.60;6.60;;;21.80;41.30;;;;;;4956875;28;20478;-84
2021/03/04 10:28:46;;;;;;;9.63;5.77;;;21.80;42.70;;;;;;4956058;29;20437;-83
2021/03/04 10:31:13;;;;;;;10.90;6.70;;;22.40;41.60;;;;;;4955084;29;20450;-84
2021/03/04 10:33:40;;;;;;;11.13;5.83;;;23.00;40.10;;;;;;4972982;28;20465;-84
2021/03/04 10:36:06;;;;;;;10.33;6.70;;;23.50;39.70;;;;;;4960839;28;21067;-84
2021/03/04 10:38:33;;;;;;;7.82;6.32;;;23.70;39.20;;;;;;4955677;28;20226;-83
2021/03/04 10:40:59;;;;;;;9.75;6.13;;;24.60;39.10;;;;;;4960205;28;20209;-84
2021/03/04 10:43:25;;;;;;;10.95;6.32;;;25.30;37.40;;;;;;4975377;28;20256;-83
2021/03/04 10:45:52;;;;;;;9.25;6.53;;;25.50;37.00;;;;;;4975263;28;20233;-84
2021/03/04 10:48:18;;;;;;;12.93;6.53;;;25.40;37.20;;;;;;4975393;28;20201;-84
2021/03/04 10:50:45;;;;;;;8.23;6.28;;;25.20;35.70;;;;;;4975081;28;20190;-84
2021/03/04 10:53:11;;;;;;;8.65;6.70;;;24.50;37.00;;;;;;4965617;28;20704;-84
2021/03/04 10:55:37;;;;;;;7.82;6.88;;;24.70;36.90;;;;;;4969772;28;20232;-84
2021/03/04 10:58:04;;;;;;;8.52;6.55;;;24.10;37.10;;;;;;4975148;28;20217;-85
2021/03/04 11:00:30;;;;;;;10.68;6.88;;;24.50;37.90;;;;;;4956258;28;20210;-85
2021/03/04 11:02:57;;;;;;;9.27;6.70;;;23.80;38.00;;;;;;4955617;29;20674;-88
2021/03/04 11:05:23;;;;;;;11.63;6.35;;;23.60;38.10;;;;;;4954994;29;20221;-83
2021/03/04 11:07:50;;;;;;;7.60;5.90;;;23.20;38.80;;;;;;4955757;29;20305;-81
2021/03/04 11:10:17;;;;;;;8.43;6.85;;;22.80;38.50;;;;;;4958776;28;20622;-81
2021/03/04 11:12:43;;;;;;;7.77;6.23;;;22.20;39.60;;;;;;4965838;28;20689;-81
2021/03/04 11:15:10;;;;;;;9.40;6.23;;;21.80;39.70;;;;;;4962157;28;20235;-80
2021/03/04 11:17:36;;;;;;;12.40;6.30;;;21.40;40.40;;;;;;4972530;28;20289;-81
2021/03/04 11:20:05;;;;;;;12.47;6.87;;;20.70;40.80;;;;;;4954867;29;20872;-80
2021/03/04 11:22:31;;;;;;;10.77;6.03;;;20.40;42.00;;;;;;4954613;29;20457;-80
2021/03/04 11:24:58;;;;;;;11.30;6.87;;;20.20;42.00;;;;;;4953688;28;20478;-82
2021/03/04 11:27:24;;;;;;;11.27;6.97;;;19.90;42.10;;;;;;4952927;29;20454;-82
2021/03/04 11:29:51;;;;;;;10.47;6.90;;;19.60;42.10;;;;;;4955520;29;20481;-81
2021/03/04 11:32:17;;;;;;;12.17;7.67;;;19.00;44.10;;;;;;4955482;29;20493;-85
2021/03/04 11:34:44;;;;;;;8.00;6.10;;;18.70;43.70;;;;;;4955103;28;20505;-84
2021/03/04 11:37:10;;;;;;;9.73;6.17;;;18.50;44.70;;;;;;4954360;29;20454;-83
2021/03/04 11:39:36;;;;;;;12.30;7.07;;;18.50;46.00;;;;;;4954651;29;20446;-85
2021/03/04 11:42:04;;;;;;;8.97;7.10;;;18.30;45.90;;;;;;4954852;29;20531;-83
2021/03/04 11:44:31;;;;;;;11.10;6.50;;;18.10;46.10;;;;;;4954930;29;20466;-82
2021/03/04 11:46:57;;;;;;;12.63;6.43;;;18.10;45.90;;;;;;4954525;29;20824;-82
2021/03/04 11:49:23;;;;;;;11.13;6.77;;;18.10;45.90;;;;;;4954959;29;20494;-82
2021/03/04 11:51:50;;;;;;;13.83;8.20;;;18.00;46.40;;;;;;4956614;29;20462;-83
2021/03/04 11:54:16;;;;;;;10.23;6.20;;;18.00;47.10;;;;;;4959418;29;20459;-88
2021/03/04 11:56:43;;;;;;;10.57;6.37;;;18.00;46.40;;;;;;4960084;28;20470;-82
2021/03/04 11:59:13;;;;;;;11.60;6.60;;;18.10;46.60;;;;;;4955749;29;20759;-85
2021/03/04 12:01:40;;;;;;;9.37;7.57;;;18.10;47.10;;;;;;4955806;29;20457;-83
2021/03/04 12:04:07;;;;;;;9.20;6.50;;;18.00;46.50;;;;;;4955375;29;20438;-87
2021/03/04 12:06:33;;;;;;;13.37;7.23;;;17.70;46.80;;;;;;4956748;28;20981;-87
2021/03/04 12:09:00;;;;;;;12.70;6.20;;;17.70;47.30;;;;;;4959831;29;20439;-89
2021/03/04 12:11:26;;;;;;;10.80;7.30;;;17.60;47.70;;;;;;4959518;28;20446;-84
2021/03/04 12:13:53;;;;;;;11.40;7.07;;;17.60;47.50;;;;;;4958853;29;20474;-84
2021/03/04 12:16:20;;;;;;;14.47;8.00;;;17.70;47.50;;;;;;4957819;29;20473;-84
2021/03/04 12:18:47;;;;;;;10.23;7.27;;;17.40;47.80;;;;;;4958396;29;20442;-83
2021/03/04 12:21:13;;;;;;;12.90;6.60;;;17.40;47.50;;;;;;4957737;29;20450;-82
2021/03/04 12:23:39;;;;;;;11.50;7.10;;;17.20;48.10;;;;;;4957625;29;20485;-82
2021/03/04 12:26:05;;;;;;;9.80;6.53;;;16.80;48.10;;;;;;4957732;28;20557;-83
2021/03/04 12:28:32;;;;;;;12.30;6.50;;;16.80;48.50;;;;;;4958140;29;20422;-83
2021/03/04 12:30:58;;;;;;;10.77;6.93;;;16.70;48.60;;;;;;4958439;29;20466;-82
2021/03/04 12:33:25;;;;;;;13.00;7.43;;;16.60;48.90;;;;;;4957669;29;20474;-85
2021/03/04 12:35:53;;;;;;;17.30;7.67;;;16.60;50.00;;;;;;4957978;29;20499;-85
2021/03/04 12:38:19;;;;;;;15.43;7.40;;;16.40;49.80;;;;;;4957793;29;20490;-84
2021/03/04 12:40:45;;;;;;;12.17;7.20;;;16.40;50.90;;;;;;4958191;29;20477;-82
2021/03/04 12:43:12;;;;;;;9.00;6.80;;;16.40;50.70;;;;;;4957879;29;20441;-82
2021/03/04 12:45:38;;;;;;;10.37;6.57;;;16.40;50.30;;;;;;4957829;28;20891;-81
2021/03/04 12:48:06;;;;;;;13.83;7.37;;;16.40;49.80;;;;;;4957754;29;20439;-81
2021/03/04 12:50:33;;;;;;;16.23;7.57;;;16.30;50.40;;;;;;4957172;29;20509;-81